createdAt,value
2023-05-22T00:01:30.106Z,35.60
2023-05-22T00:03:57.126Z,48.65
2023-05-22T00:06:24.716Z,32.58
2023-05-22T00:08:51.354Z,49.90
2023-05-22T00:11:17.917Z,39.35
2023-05-22T00:13:44.622Z,28.48
2023-05-22T00:16:11.112Z,31.17
2023-05-22T00:18:37.630Z,30.75
2023-05-22T00:21:04.383Z,37.10
2023-05-22T00:23:30.883Z,36.88
2023-05-22T00:25:57.411Z,30.38
2023-05-22T00:28:23.992Z,33.17
2023-05-22T00:30:52.201Z,32.65
2023-05-22T00:33:19.016Z,33.83
2023-05-22T00:35:45.595Z,21.90
2023-05-22T00:38:27.412Z,25.58
2023-05-22T00:40:54.308Z,29.77
2023-05-22T00:43:21.579Z,23.05
2023-05-22T00:45:48.293Z,62.28
2023-05-22T00:48:15.558Z,21.98
2023-05-22T00:50:42.507Z,21.05
2023-05-22T00:53:09.956Z,22.38
2023-05-22T00:55:36.695Z,24.75
2023-05-22T00:58:07.592Z,20.80
2023-05-22T01:00:37.451Z,21.13
2023-05-22T01:03:07.923Z,20.73
2023-05-22T01:05:35.278Z,24.60
2023-05-22T01:08:02.042Z,30.48
2023-05-22T01:10:29.005Z,18.50
2023-05-22T01:13:00.932Z,22.25
2023-05-22T01:15:46.358Z,28.08
2023-05-22T01:18:20.630Z,24.83
2023-05-22T01:20:55.117Z,19.95
2023-05-22T01:23:40.856Z,22.27
2023-05-22T01:26:12.927Z,20.58
2023-05-22T01:28:45.905Z,20.50
2023-05-22T01:31:18.078Z,18.88
2023-05-22T01:33:44.792Z,21.58
2023-05-22T01:36:13.571Z,19.63
2023-05-22T01:38:41.122Z,20.27
2023-05-22T01:41:07.620Z,28.50
2023-05-22T01:43:34.833Z,24.85
2023-05-22T01:46:01.880Z,18.98
2023-05-22T01:48:28.532Z,20.85
2023-05-22T01:50:56.297Z,17.88
2023-05-22T01:53:49.201Z,23.65
2023-05-22T01:56:19.285Z,25.58
2023-05-22T01:58:46.007Z,20.63
2023-05-22T02:01:14.139Z,18.55
2023-05-22T02:03:41.692Z,19.05
2023-05-22T02:06:10.054Z,22.27
2023-05-22T02:08:38.817Z,31.92
2023-05-22T02:11:05.824Z,27.80
2023-05-22T02:13:32.441Z,23.65
2023-05-22T02:15:59.069Z,18.48
2023-05-22T02:18:29.458Z,20.45
2023-05-22T02:20:56.726Z,20.35
2023-05-22T02:23:24.218Z,23.00
2023-05-22T02:25:50.779Z,22.08
2023-05-22T02:28:17.368Z,19.95
2023-05-22T02:30:45.883Z,22.38
2023-05-22T02:33:12.992Z,21.50
2023-05-22T02:35:39.508Z,21.38
2023-05-22T02:38:06.615Z,23.15
2023-05-22T02:40:33.475Z,22.52
2023-05-22T02:43:00.039Z,22.45
2023-05-22T02:45:26.924Z,34.22
2023-05-22T02:47:53.566Z,21.27
2023-05-22T02:50:20.254Z,25.55
2023-05-22T02:52:46.780Z,22.00
2023-05-22T02:55:13.407Z,25.95
2023-05-22T02:57:40.125Z,19.45
2023-05-22T03:00:07.335Z,20.73
2023-05-22T03:02:34.569Z,29.52
2023-05-22T03:05:01.290Z,23.00
2023-05-22T03:07:29.635Z,19.13
2023-05-22T03:09:56.637Z,20.38
2023-05-22T03:12:23.321Z,37.95
2023-05-22T03:14:50.058Z,25.02
2023-05-22T03:17:16.697Z,23.92
2023-05-22T03:19:43.254Z,25.73
2023-05-22T03:22:09.867Z,22.92
2023-05-22T03:24:36.663Z,27.50
2023-05-22T03:27:03.501Z,41.55
2023-05-22T03:29:38.482Z,56.97
2023-05-22T03:32:05.153Z,55.60
2023-05-22T03:34:32.397Z,23.05
2023-05-22T03:37:00.617Z,30.25
2023-05-22T03:39:27.126Z,49.22
2023-05-22T03:42:05.691Z,29.60
2023-05-22T03:44:32.250Z,43.50
2023-05-22T03:47:00.791Z,38.17
2023-05-22T03:49:27.307Z,58.97
2023-05-22T03:51:53.811Z,52.13
2023-05-22T03:54:21.231Z,42.50
2023-05-22T03:56:47.779Z,34.38
2023-05-22T03:59:14.332Z,25.63
2023-05-22T04:01:41.234Z,50.13
2023-05-22T04:04:09.532Z,25.92
2023-05-22T04:06:43.169Z,24.02
2023-05-22T04:09:12.689Z,28.73
2023-05-22T04:11:42.502Z,28.00
2023-05-22T04:14:09.442Z,15.10
2023-05-22T04:16:36.059Z,22.23
2023-05-22T04:19:03.422Z,24.05
2023-05-22T04:21:34.206Z,19.67
2023-05-22T04:24:07.332Z,22.85
2023-05-22T04:26:34.232Z,25.58
2023-05-22T04:29:01.245Z,37.22
2023-05-22T04:31:28.543Z,35.30
2023-05-22T04:33:56.007Z,21.52
2023-05-22T04:36:25.926Z,20.25
2023-05-22T04:38:52.934Z,22.20
2023-05-22T04:41:22.700Z,31.08
2023-05-22T04:43:53.105Z,18.17
2023-05-22T04:46:19.847Z,27.50
2023-05-22T04:48:47.405Z,33.25
2023-05-22T04:51:16.094Z,52.75
2023-05-22T04:53:42.813Z,33.97
2023-05-22T04:56:09.644Z,44.90
2023-05-22T04:58:38.382Z,33.05
2023-05-22T05:01:05.947Z,57.97
2023-05-22T05:03:32.614Z,35.67
2023-05-22T05:06:00.498Z,52.83
2023-05-22T05:08:27.162Z,34.58
2023-05-22T05:10:53.754Z,51.28
2023-05-22T05:13:20.701Z,62.33
2023-05-22T05:15:47.680Z,41.15
2023-05-22T05:18:14.352Z,47.28
2023-05-22T05:20:42.889Z,91.25
2023-05-22T05:23:10.350Z,58.88
2023-05-22T05:25:38.972Z,50.72
2023-05-22T05:28:10.835Z,51.67
2023-05-22T05:30:39.000Z,38.22
2023-05-22T05:33:32.740Z,52.85
2023-05-22T05:36:06.448Z,41.83
2023-05-22T05:38:34.403Z,50.72
2023-05-22T05:41:01.042Z,56.35
2023-05-22T05:43:28.318Z,41.85
2023-05-22T05:45:59.005Z,45.78
2023-05-22T05:48:25.607Z,50.70
2023-05-22T05:50:52.417Z,67.05
2023-05-22T05:53:19.313Z,57.22
2023-05-22T05:55:52.773Z,62.10
2023-05-22T05:58:20.041Z,44.15
2023-05-22T06:01:16.466Z,47.83
2023-05-22T06:03:43.129Z,41.58
2023-05-22T06:06:14.033Z,53.50
2023-05-22T06:08:59.100Z,55.20
2023-05-22T06:11:31.371Z,48.88
2023-05-22T06:13:59.391Z,58.15
2023-05-22T06:16:27.160Z,56.85
2023-05-22T06:18:54.119Z,69.97
2023-05-22T06:21:21.263Z,61.45
2023-05-22T06:23:49.843Z,63.80
2023-05-22T06:26:17.612Z,67.18
2023-05-22T06:28:45.621Z,62.30
2023-05-22T06:31:12.380Z,69.13
2023-05-22T06:33:43.529Z,62.75
2023-05-22T06:36:11.659Z,72.65
2023-05-22T06:38:39.186Z,71.07
2023-05-22T06:41:10.732Z,63.00
2023-05-22T06:43:37.704Z,68.03
2023-05-22T06:46:11.244Z,66.80
2023-05-22T06:48:40.766Z,70.22
2023-05-22T06:51:16.289Z,62.38
2023-05-22T06:53:48.836Z,65.95
2023-05-22T06:56:19.596Z,61.05
2023-05-22T06:58:53.594Z,57.80
2023-05-22T07:01:23.561Z,57.83
2023-05-22T07:04:01.960Z,57.05
2023-05-22T07:06:39.234Z,57.28
2023-05-22T07:09:06.525Z,60.45
2023-05-22T07:11:33.517Z,64.07
2023-05-22T07:14:01.165Z,60.75
2023-05-22T07:16:28.157Z,55.92
2023-05-22T07:18:55.191Z,55.15
2023-05-22T07:21:23.815Z,59.50
2023-05-22T07:23:52.002Z,58.00
2023-05-22T07:26:18.984Z,55.70
2023-05-22T07:28:53.311Z,55.67
2023-05-22T07:31:20.094Z,55.30
2023-05-22T07:33:48.137Z,61.08
2023-05-22T07:36:17.446Z,56.58
2023-05-22T07:38:44.109Z,49.40
2023-05-22T07:41:10.621Z,56.38
2023-05-22T07:43:37.710Z,55.70
2023-05-22T07:46:06.211Z,50.78
2023-05-22T07:48:39.034Z,55.47
2023-05-22T07:51:07.862Z,52.58
2023-05-22T07:53:34.522Z,51.00
2023-05-22T07:56:03.013Z,56.40
2023-05-22T07:58:32.472Z,52.28
2023-05-22T08:01:01.810Z,55.47
2023-05-22T08:03:28.642Z,51.05
2023-05-22T08:05:55.646Z,54.42
2023-05-22T08:08:22.196Z,53.08
2023-05-22T08:11:02.937Z,51.80
2023-05-22T08:13:30.700Z,52.65
2023-05-22T08:16:00.162Z,53.58
2023-05-22T08:18:30.135Z,48.33
2023-05-22T08:20:57.064Z,53.60
2023-05-22T08:23:23.622Z,49.50
2023-05-22T08:25:50.859Z,53.13
2023-05-22T08:28:17.453Z,51.00
2023-05-22T08:30:44.113Z,54.30
2023-05-22T08:33:11.857Z,45.63
2023-05-22T08:35:39.662Z,46.60
2023-05-22T08:38:06.288Z,48.28
2023-05-22T08:40:37.913Z,47.22
2023-05-22T08:43:05.036Z,49.63
2023-05-22T08:45:34.133Z,47.90
2023-05-22T08:48:07.781Z,42.60
2023-05-22T08:50:37.634Z,47.20
2023-05-22T08:53:07.258Z,45.97
2023-05-22T08:55:34.193Z,43.00
2023-05-22T08:58:01.231Z,44.63
2023-05-22T09:00:27.926Z,48.58
2023-05-22T09:02:55.849Z,47.33
2023-05-22T09:05:26.930Z,44.85
2023-05-22T09:08:02.783Z,47.28
2023-05-22T09:10:35.835Z,49.15
2023-05-22T09:13:09.469Z,45.05
2023-05-22T09:15:36.579Z,45.90
2023-05-22T09:18:03.656Z,45.75
2023-05-22T09:20:30.662Z,42.67
2023-05-22T09:22:57.229Z,44.10
2023-05-22T09:25:23.870Z,42.28
2023-05-22T09:27:50.981Z,42.25
2023-05-22T09:30:18.561Z,45.97
2023-05-22T09:32:46.786Z,47.13
2023-05-22T09:35:14.292Z,46.95
2023-05-22T09:37:41.269Z,41.10
2023-05-22T09:40:11.782Z,41.88
2023-05-22T09:42:43.662Z,39.70
2023-05-22T09:45:10.528Z,43.83
2023-05-22T09:47:37.089Z,40.60
2023-05-22T09:50:06.417Z,45.10
2023-05-22T09:52:37.235Z,36.83
2023-05-22T09:55:07.449Z,42.38
2023-05-22T09:57:41.507Z,39.55
2023-05-22T10:00:11.471Z,39.25
2023-05-22T10:02:53.412Z,40.47
2023-05-22T10:05:23.509Z,39.35
2023-05-22T10:07:51.139Z,36.95
2023-05-22T10:10:27.176Z,36.95
2023-05-22T10:12:57.823Z,33.03
2023-05-22T10:15:24.876Z,35.17
2023-05-22T10:17:51.619Z,34.00
2023-05-22T10:20:18.904Z,34.78
2023-05-22T10:22:46.703Z,34.97
2023-05-22T10:25:13.503Z,35.22
2023-05-22T10:27:40.760Z,36.53
2023-05-22T10:30:19.090Z,38.53
2023-05-22T10:33:14.537Z,35.63
2023-05-22T10:35:44.181Z,35.00
2023-05-22T10:38:22.539Z,37.53
2023-05-22T10:40:49.909Z,34.47
2023-05-22T10:43:16.523Z,33.38
2023-05-22T10:45:45.500Z,33.33
2023-05-22T10:48:12.699Z,34.38
2023-05-22T10:50:39.971Z,32.42
2023-05-22T10:53:25.680Z,33.47
2023-05-22T10:55:53.163Z,33.47
2023-05-22T10:58:29.873Z,36.85
2023-05-22T11:01:16.672Z,35.75
2023-05-22T11:03:54.120Z,37.65
2023-05-22T11:06:29.856Z,34.22
2023-05-22T11:08:57.550Z,37.05
2023-05-22T11:11:27.492Z,37.78
2023-05-22T11:14:01.270Z,38.20
2023-05-22T11:16:31.438Z,36.35
2023-05-22T11:19:21.694Z,36.55
2023-05-22T11:21:49.732Z,38.08
2023-05-22T11:24:17.535Z,40.05
2023-05-22T11:26:44.446Z,36.67
2023-05-22T11:29:11.023Z,35.72
2023-05-22T11:31:37.967Z,38.47
2023-05-22T11:34:04.752Z,42.65
2023-05-22T11:36:31.822Z,35.88
2023-05-22T11:38:59.919Z,35.95
2023-05-22T11:41:35.924Z,39.53
2023-05-22T11:44:02.635Z,34.92
2023-05-22T11:46:30.423Z,35.53
2023-05-22T11:48:57.031Z,38.13
2023-05-22T11:51:24.237Z,34.70
2023-05-22T11:53:51.593Z,33.00
2023-05-22T11:56:19.774Z,34.08
2023-05-22T11:58:47.807Z,32.55
2023-05-22T12:01:14.453Z,32.25
2023-05-22T12:03:42.070Z,37.63
2023-05-22T12:06:09.384Z,35.47
2023-05-22T12:08:36.136Z,31.55
2023-05-22T12:11:04.486Z,30.42
2023-05-22T12:13:31.079Z,32.00
2023-05-22T12:16:00.490Z,29.98
2023-05-22T12:18:27.933Z,28.20
2023-05-22T12:20:57.676Z,27.50
2023-05-22T12:23:28.013Z,28.63
2023-05-22T12:26:02.014Z,26.52
2023-05-22T12:28:31.234Z,27.13
2023-05-22T12:30:57.835Z,30.55
2023-05-22T12:33:28.476Z,28.35
2023-05-22T12:35:58.387Z,27.23
2023-05-22T12:38:32.478Z,32.97
2023-05-22T12:41:00.330Z,30.00
2023-05-22T12:43:27.226Z,27.88
2023-05-22T12:45:54.065Z,26.80
2023-05-22T12:48:20.672Z,30.75
2023-05-22T12:50:47.303Z,24.27
2023-05-22T12:53:13.997Z,22.75
2023-05-22T12:55:42.067Z,21.50
2023-05-22T12:58:08.738Z,20.05
2023-05-22T13:00:35.575Z,24.83
2023-05-22T13:03:02.426Z,20.95
2023-05-22T13:05:30.433Z,21.63
2023-05-22T13:07:57.084Z,22.05
2023-05-22T13:10:23.619Z,24.60
2023-05-22T13:12:51.635Z,24.13
2023-05-22T13:15:18.496Z,19.02
2023-05-22T13:17:45.864Z,25.25
2023-05-22T13:20:13.094Z,27.90
2023-05-22T13:22:40.266Z,20.77
2023-05-22T13:25:06.977Z,23.35
2023-05-22T13:27:34.019Z,25.52
2023-05-22T13:30:00.757Z,18.50
2023-05-22T13:32:27.416Z,27.67
2023-05-22T13:34:53.954Z,25.13
2023-05-22T13:37:20.725Z,28.23
2023-05-22T13:39:47.201Z,23.27
2023-05-22T13:42:13.807Z,23.10
2023-05-22T13:44:40.343Z,21.23
2023-05-22T13:47:06.962Z,21.30
2023-05-22T13:49:33.627Z,22.75
2023-05-22T13:52:00.272Z,26.42
2023-05-22T13:54:27.212Z,26.85
2023-05-22T13:56:53.911Z,27.02
2023-05-22T13:59:20.575Z,25.35
2023-05-22T14:01:47.197Z,32.38
2023-05-22T14:04:13.700Z,28.23
2023-05-22T14:06:40.250Z,26.60
2023-05-22T14:09:07.936Z,29.75
2023-05-22T14:11:34.694Z,26.85
2023-05-22T14:14:01.295Z,27.60
2023-05-22T14:16:27.840Z,22.85
2023-05-22T14:18:54.518Z,27.35
2023-05-22T14:21:21.052Z,22.30
2023-05-22T14:23:47.604Z,21.52
2023-05-22T14:26:14.806Z,22.48
2023-05-22T14:28:42.303Z,24.92
2023-05-22T14:31:09.018Z,30.40
2023-05-22T14:33:35.918Z,26.63
2023-05-22T14:36:02.433Z,29.08
2023-05-22T14:38:33.628Z,25.30
2023-05-22T14:41:03.494Z,27.33
2023-05-22T14:43:30.023Z,23.75
2023-05-22T14:45:58.031Z,24.13
2023-05-22T14:48:26.382Z,24.65
2023-05-22T14:50:56.237Z,26.67
2023-05-22T14:53:22.896Z,26.67
2023-05-22T14:55:49.547Z,25.08
2023-05-22T14:58:16.063Z,26.80
2023-05-22T15:00:43.024Z,30.17
2023-05-22T15:03:11.584Z,23.83
2023-05-22T15:05:38.441Z,30.20
2023-05-22T15:08:05.230Z,29.52
2023-05-22T15:10:31.821Z,28.48
2023-05-22T15:12:58.425Z,26.42
2023-05-22T15:15:25.154Z,29.35
2023-05-22T15:17:51.753Z,31.55
2023-05-22T15:20:18.394Z,31.67
2023-05-22T15:22:44.954Z,30.60
2023-05-22T15:25:14.884Z,34.47
2023-05-22T15:27:42.251Z,27.38
2023-05-22T15:30:12.391Z,29.67
2023-05-22T15:32:39.415Z,33.65
2023-05-22T15:35:06.803Z,32.72
2023-05-22T15:37:36.712Z,31.38
2023-05-22T15:40:08.142Z,38.75
2023-05-22T15:42:34.692Z,31.08
2023-05-22T15:45:01.318Z,31.13
2023-05-22T15:47:28.950Z,31.88
2023-05-22T15:49:55.765Z,32.10
2023-05-22T15:52:24.355Z,30.08
2023-05-22T15:54:51.192Z,31.95
2023-05-22T15:57:17.752Z,35.60
2023-05-22T15:59:47.054Z,35.63
2023-05-22T16:02:14.199Z,32.17
2023-05-22T16:04:40.762Z,40.13
2023-05-22T16:07:07.636Z,32.90
2023-05-22T16:09:35.005Z,38.22
2023-05-22T16:12:01.935Z,33.75
2023-05-22T16:14:28.637Z,32.78
2023-05-22T16:16:55.453Z,31.00
2023-05-22T16:19:22.059Z,26.98
2023-05-22T16:21:48.622Z,30.00
2023-05-22T16:24:15.166Z,27.40
2023-05-22T16:26:41.777Z,28.38
2023-05-22T16:29:08.995Z,27.05
2023-05-22T16:31:35.834Z,24.92
2023-05-22T16:34:03.100Z,28.17
2023-05-22T16:36:29.770Z,26.98
2023-05-22T16:38:56.408Z,25.85
2023-05-22T16:41:23.394Z,23.48
2023-05-22T16:43:50.456Z,28.00
2023-05-22T16:46:17.059Z,26.23
2023-05-22T16:48:43.691Z,29.13
2023-05-22T16:51:11.322Z,27.27
2023-05-22T16:53:38.606Z,22.50
2023-05-22T16:56:05.434Z,27.38
2023-05-22T16:58:32.858Z,24.67
2023-05-22T17:00:59.878Z,24.00
2023-05-22T17:03:27.080Z,23.20
2023-05-22T17:05:53.813Z,25.88
2023-05-22T17:08:20.637Z,22.30
2023-05-22T17:10:47.155Z,25.27
2023-05-22T17:13:20.696Z,22.17
2023-05-22T17:15:48.798Z,27.52
2023-05-22T17:18:22.481Z,22.33
2023-05-22T17:20:49.511Z,14.90
2023-05-22T17:23:17.696Z,10.68
2023-05-22T17:25:46.708Z,8.52
2023-05-22T17:28:15.267Z,10.82
2023-05-22T17:30:42.664Z,10.65
2023-05-22T17:33:09.599Z,8.07
2023-05-22T17:35:36.249Z,9.63
2023-05-22T17:38:02.842Z,9.32
2023-05-22T17:40:40.473Z,9.05
2023-05-22T17:43:10.351Z,12.20
2023-05-22T17:45:36.862Z,7.85
2023-05-22T17:48:03.587Z,8.32
2023-05-22T17:50:30.148Z,7.47
2023-05-22T17:52:56.753Z,7.35
2023-05-22T17:55:23.334Z,9.35
2023-05-22T17:57:49.952Z,8.20
2023-05-22T18:00:16.934Z,9.23
2023-05-22T18:02:44.390Z,10.55
2023-05-22T18:05:11.130Z,10.77
2023-05-22T18:07:37.718Z,7.75
2023-05-22T18:10:05.280Z,9.77
2023-05-22T18:12:32.393Z,11.13
2023-05-22T18:14:59.305Z,9.50
2023-05-22T18:17:25.964Z,12.15
2023-05-22T18:19:54.094Z,11.70
2023-05-22T18:22:21.770Z,10.77
2023-05-22T18:24:48.517Z,11.55
2023-05-22T18:27:16.393Z,9.57
2023-05-22T18:29:43.021Z,9.27
2023-05-22T18:32:10.879Z,10.57
2023-05-22T18:34:37.818Z,11.65
2023-05-22T18:37:04.491Z,11.73
2023-05-22T18:39:31.242Z,9.43
2023-05-22T18:41:58.483Z,10.68
2023-05-22T18:44:25.195Z,9.75
2023-05-22T18:46:51.768Z,7.45
2023-05-22T18:49:18.426Z,9.27
2023-05-22T18:51:44.944Z,9.05
2023-05-22T18:54:11.460Z,8.23
2023-05-22T18:56:38.759Z,11.30
2023-05-22T18:59:05.333Z,8.65
2023-05-22T19:01:32.341Z,9.15
2023-05-22T19:03:59.095Z,10.32
2023-05-22T19:06:26.251Z,8.93
2023-05-22T19:08:52.781Z,8.00
2023-05-22T19:11:19.334Z,9.82
2023-05-22T19:13:45.880Z,10.00
2023-05-22T19:16:13.680Z,10.30
2023-05-22T19:18:40.718Z,10.15
2023-05-22T19:21:07.337Z,9.90
2023-05-22T19:23:33.892Z,11.05
2023-05-22T19:26:00.735Z,10.75
2023-05-22T19:28:27.614Z,9.15
2023-05-22T19:30:57.527Z,10.38
2023-05-22T19:33:26.386Z,12.27
2023-05-22T19:35:53.257Z,11.18
2023-05-22T19:38:20.065Z,10.25
2023-05-22T19:40:46.689Z,10.02
2023-05-22T19:43:13.305Z,10.23
2023-05-22T19:45:39.980Z,12.07
2023-05-22T19:48:06.571Z,10.25
2023-05-22T19:50:33.623Z,11.13
2023-05-22T19:53:02.554Z,9.95
2023-05-22T19:55:29.252Z,10.18
2023-05-22T19:57:56.032Z,11.38
2023-05-22T20:00:22.825Z,11.70
2023-05-22T20:02:50.101Z,9.60
2023-05-22T20:05:16.990Z,9.20
2023-05-22T20:07:43.519Z,10.15
2023-05-22T20:10:10.747Z,7.75
2023-05-22T20:12:37.778Z,6.03
2023-05-22T20:15:06.850Z,6.40
2023-05-22T20:17:33.855Z,6.93
2023-05-22T20:20:00.748Z,6.43
2023-05-22T20:22:27.636Z,4.70
2023-05-22T20:24:54.178Z,5.53
2023-05-22T20:27:21.030Z,4.45
2023-05-22T20:29:49.913Z,4.30
2023-05-22T20:32:17.082Z,5.70
2023-05-22T20:34:45.178Z,4.68
2023-05-22T20:37:13.851Z,5.40
2023-05-22T20:39:47.188Z,6.00
2023-05-22T20:42:21.594Z,6.85
2023-05-22T20:44:48.397Z,4.20
2023-05-22T20:47:15.005Z,4.15
2023-05-22T20:49:41.694Z,5.38
2023-05-22T20:52:09.964Z,4.28
2023-05-22T20:54:36.725Z,3.92
2023-05-22T20:57:03.616Z,5.05
2023-05-22T20:59:30.185Z,4.45
2023-05-22T21:01:57.758Z,4.38
2023-05-22T21:04:24.543Z,4.38
2023-05-22T21:06:51.315Z,5.03
2023-05-22T21:09:18.021Z,5.40
2023-05-22T21:11:44.553Z,6.50
2023-05-22T21:14:11.034Z,5.45
2023-05-22T21:16:39.491Z,4.80
2023-05-22T21:19:07.205Z,5.82
2023-05-22T21:21:34.049Z,5.35
2023-05-22T21:24:00.801Z,5.03
2023-05-22T21:26:27.462Z,4.93
2023-05-22T21:28:54.657Z,5.80
2023-05-22T21:31:21.270Z,6.13
2023-05-22T21:33:47.882Z,6.60
2023-05-22T21:36:14.379Z,9.43
2023-05-22T21:38:41.162Z,5.78
2023-05-22T21:41:07.715Z,7.05
2023-05-22T21:43:34.331Z,5.35
2023-05-22T21:46:00.877Z,4.43
2023-05-22T21:48:27.466Z,5.70
2023-05-22T21:50:54.118Z,5.38
2023-05-22T21:53:21.116Z,6.68
2023-05-22T21:55:47.836Z,5.13
2023-05-22T21:58:14.466Z,5.97
2023-05-22T22:00:41.496Z,6.18
2023-05-22T22:03:08.608Z,6.68
2023-05-22T22:05:35.658Z,5.63
2023-05-22T22:08:02.361Z,5.40
2023-05-22T22:10:28.872Z,4.78
2023-05-22T22:12:55.419Z,6.40
2023-05-22T22:15:22.126Z,6.25
2023-05-22T22:17:50.141Z,6.40
2023-05-22T22:20:18.687Z,6.43
2023-05-22T22:22:47.164Z,9.82
2023-05-22T22:25:13.692Z,6.72
2023-05-22T22:27:40.685Z,6.80
2023-05-22T22:30:07.616Z,6.32
2023-05-22T22:32:36.458Z,6.20
2023-05-22T22:35:02.999Z,7.22
2023-05-22T22:37:29.719Z,6.80
2023-05-22T22:39:56.348Z,7.53
2023-05-22T22:42:23.019Z,8.35
2023-05-22T22:44:49.563Z,6.82
2023-05-22T22:47:16.088Z,8.38
2023-05-22T22:49:42.566Z,6.28
2023-05-22T22:52:09.132Z,7.32
2023-05-22T22:54:35.784Z,8.25
2023-05-22T22:57:02.371Z,6.85
2023-05-22T22:59:29.114Z,6.57
2023-05-22T23:01:55.901Z,7.88
2023-05-22T23:04:22.603Z,5.97
2023-05-22T23:06:49.187Z,5.88
2023-05-22T23:09:15.716Z,6.53
2023-05-22T23:11:42.228Z,6.50
2023-05-22T23:14:08.947Z,6.63
2023-05-22T23:16:36.260Z,6.43
2023-05-22T23:19:06.843Z,7.72
2023-05-22T23:21:34.260Z,5.47
2023-05-22T23:24:01.958Z,7.10
2023-05-22T23:26:28.604Z,6.50
2023-05-22T23:28:55.181Z,8.38
2023-05-22T23:31:25.921Z,7.35
2023-05-22T23:33:53.021Z,6.57
2023-05-22T23:36:19.681Z,9.30
2023-05-22T23:38:46.442Z,7.95
2023-05-22T23:41:13.835Z,8.07
2023-05-22T23:43:40.426Z,7.03
2023-05-22T23:46:06.943Z,7.82
2023-05-22T23:48:33.483Z,8.00
2023-05-22T23:51:00.051Z,7.85
2023-05-22T23:53:26.650Z,7.60
2023-05-22T23:55:53.321Z,8.40
2023-05-22T23:58:19.866Z,7.82
